This is the latest recevied weather packets stored in our database for station/object KQ4HDO. If no packets are shown the sender has not sent any weather packets the latest 10 day(s).
| Time | Temp. | Humidity | Pressure | Rain* | Wind** | Luminosity | Snow |
|---|---|---|---|---|---|---|---|
| 1777882203 | 13.33° C | 89% | 1006.7 hPa | 0 mm | - | - | - |
| 1777881903 | 12.78° C | 90% | 1006.6 hPa | 0 mm | - | - | - |
| 1777880403 | 13.33° C | 91% | 1007 hPa | 0 mm | - | - | - |
| 1777877703 | 13.33° C | 92% | 1007.1 hPa | 0 mm | - | - | - |
| 1777875303 | 13.89° C | 91% | 1007.6 hPa | 0 mm | - | - | - |
| 1777874403 | 14.44° C | 91% | 1007.7 hPa | 0 mm | - | - | - |
| 1777873803 | 14.44° C | 92% | 1007.8 hPa | 0 mm | - | - | - |
| 1777872903 | 13.89° C | 92% | 1007.7 hPa | 0 mm | - | - | - |
| 1777871703 | 13.89° C | 92% | 1007.7 hPa | 0 mm | - | - | - |
| 1777870803 | 13.89° C | 92% | 1007.5 hPa | 0 mm | - | - | - |
| 1777870203 | 13.89° C | 91% | 1007.3 hPa | 0 mm | - | - | - |
| 1777868703 | 14.44° C | 90% | 1007.2 hPa | 0 mm | - | - | - |
| 1777866303 | 15° C | 88% | 1008.1 hPa | 1.02 mm | - | - | - |
| 1777866003 | 15° C | 88% | 1008.2 hPa | 1.02 mm | - | - | - |
| 1777864503 | 17.22° C | 74% | 1008.9 hPa | 0.76 mm | - | - | - |
| 1777863603 | 17.78° C | 71% | 1007.5 hPa | 0 mm | - | - | - |
| 1777863303 | 17.78° C | 70% | 1007.7 hPa | 0 mm | - | - | - |
| 1777863003 | 17.78° C | 70% | 1007.6 hPa | 0 mm | - | - | - |
| 1777862403 | 17.78° C | 69% | 1007.8 hPa | 0 mm | - | - | - |
| 1777862103 | 18.33° C | 69% | 1007.7 hPa | 0 mm | - | - | - |
| 1777860737 | 19.44° C | 62% | 1007.6 hPa | 0 mm | - | - | - |
| 1777860304 | 20° C | 60% | 1007.6 hPa | 0 mm | - | - | - |
| 1777859403 | 20° C | 60% | 1007.9 hPa | 0 mm | - | - | - |
| 1777856103 | 22.78° C | 48% | 1007.5 hPa | 0 mm | - | - | - |
| 1777855638 | 23.33° C | 46% | 1007.4 hPa | 0 mm | - | - | - |
* Rain latest hour (hover to see other rain measurements)
** Current wind speed in m/s (hover to see current wind gust speed)